sensor_id;sensor_type;location;lat;lon;timestamp;temperature;humidity
25732;DHT22;13585;50.864;4.406;2022-09-12T00:01:59;26.10;55.90
25732;DHT22;13585;50.864;4.406;2022-09-12T00:04:24;26.10;55.80
25732;DHT22;13585;50.864;4.406;2022-09-12T00:06:51;26.10;55.80
25732;DHT22;13585;50.864;4.406;2022-09-12T00:09:17;26.10;55.80
25732;DHT22;13585;50.864;4.406;2022-09-12T00:11:46;26.10;55.80
25732;DHT22;13585;50.864;4.406;2022-09-12T00:14:17;26.10;55.80
25732;DHT22;13585;50.864;4.406;2022-09-12T00:16:43;26.10;55.80
25732;DHT22;13585;50.864;4.406;2022-09-12T00:19:10;26.10;56.10
25732;DHT22;13585;50.864;4.406;2022-09-12T00:21:38;26.10;55.80
25732;DHT22;13585;50.864;4.406;2022-09-12T00:24:04;26.10;55.80
25732;DHT22;13585;50.864;4.406;2022-09-12T00:26:31;26.10;55.80
25732;DHT22;13585;50.864;4.406;2022-09-12T00:28:57;26.00;55.70
25732;DHT22;13585;50.864;4.406;2022-09-12T00:31:24;26.10;55.70
25732;DHT22;13585;50.864;4.406;2022-09-12T00:33:51;26.10;55.70
25732;DHT22;13585;50.864;4.406;2022-09-12T00:36:20;26.10;55.70
25732;DHT22;13585;50.864;4.406;2022-09-12T00:38:50;26.00;55.60
25732;DHT22;13585;50.864;4.406;2022-09-12T00:41:20;26.00;55.60
25732;DHT22;13585;50.864;4.406;2022-09-12T00:43:48;26.10;55.70
25732;DHT22;13585;50.864;4.406;2022-09-12T00:49:00;26.00;55.60
25732;DHT22;13585;50.864;4.406;2022-09-12T00:51:29;26.00;55.70
25732;DHT22;13585;50.864;4.406;2022-09-12T00:53:56;26.00;55.60
25732;DHT22;13585;50.864;4.406;2022-09-12T00:56:26;26.00;55.60
25732;DHT22;13585;50.864;4.406;2022-09-12T00:59:00;26.00;55.60
25732;DHT22;13585;50.864;4.406;2022-09-12T01:01:26;26.00;55.60
25732;DHT22;13585;50.864;4.406;2022-09-12T01:03:52;26.00;55.60
25732;DHT22;13585;50.864;4.406;2022-09-12T01:06:26;26.00;55.50
25732;DHT22;13585;50.864;4.406;2022-09-12T01:08:53;26.00;55.60
25732;DHT22;13585;50.864;4.406;2022-09-12T01:11:20;26.00;55.50
25732;DHT22;13585;50.864;4.406;2022-09-12T01:13:47;26.00;55.50
25732;DHT22;13585;50.864;4.406;2022-09-12T01:16:13;26.00;55.50
25732;DHT22;13585;50.864;4.406;2022-09-12T01:37:30;26.00;55.50
25732;DHT22;13585;50.864;4.406;2022-09-12T01:40:26;25.90;55.40
25732;DHT22;13585;50.864;4.406;2022-09-12T01:43:01;26.00;55.50
25732;DHT22;13585;50.864;4.406;2022-09-12T01:45:49;26.00;55.40
25732;DHT22;13585;50.864;4.406;2022-09-12T01:48:23;26.00;55.50
25732;DHT22;13585;50.864;4.406;2022-09-12T01:53:49;26.00;55.50
25732;DHT22;13585;50.864;4.406;2022-09-12T01:56:25;26.00;56.00
25732;DHT22;13585;50.864;4.406;2022-09-12T02:02:30;25.90;55.50
25732;DHT22;13585;50.864;4.406;2022-09-12T02:05:19;25.90;55.40
25732;DHT22;13585;50.864;4.406;2022-09-12T02:07:51;25.90;55.40
25732;DHT22;13585;50.864;4.406;2022-09-12T02:10:28;25.90;55.30
25732;DHT22;13585;50.864;4.406;2022-09-12T02:13:06;25.90;55.40
25732;DHT22;13585;50.864;4.406;2022-09-12T02:15:37;25.90;55.30
25732;DHT22;13585;50.864;4.406;2022-09-12T02:18:05;25.90;55.30
25732;DHT22;13585;50.864;4.406;2022-09-12T02:20:36;25.90;55.30
25732;DHT22;13585;50.864;4.406;2022-09-12T02:23:06;25.90;55.30
25732;DHT22;13585;50.864;4.406;2022-09-12T02:25:39;25.90;55.30
25732;DHT22;13585;50.864;4.406;2022-09-12T02:28:13;25.90;55.30
25732;DHT22;13585;50.864;4.406;2022-09-12T02:36:33;25.90;55.30
25732;DHT22;13585;50.864;4.406;2022-09-12T02:39:00;25.90;55.20
25732;DHT22;13585;50.864;4.406;2022-09-12T02:41:26;25.90;55.20
25732;DHT22;13585;50.864;4.406;2022-09-12T02:43:53;25.90;55.20
25732;DHT22;13585;50.864;4.406;2022-09-12T02:46:28;25.90;55.20
25732;DHT22;13585;50.864;4.406;2022-09-12T02:48:56;25.90;55.20
25732;DHT22;13585;50.864;4.406;2022-09-12T02:51:23;25.90;55.20
25732;DHT22;13585;50.864;4.406;2022-09-12T02:53:50;25.90;55.10
25732;DHT22;13585;50.864;4.406;2022-09-12T02:56:25;25.90;55.20
25732;DHT22;13585;50.864;4.406;2022-09-12T02:58:52;25.90;55.20
25732;DHT22;13585;50.864;4.406;2022-09-12T03:04:37;25.90;55.20
25732;DHT22;13585;50.864;4.406;2022-09-12T03:08:01;25.90;55.20
25732;DHT22;13585;50.864;4.406;2022-09-12T03:13:51;25.90;55.10
25732;DHT22;13585;50.864;4.406;2022-09-12T03:16:34;25.90;55.10
25732;DHT22;13585;50.864;4.406;2022-09-12T03:24:32;25.90;55.10
25732;DHT22;13585;50.864;4.406;2022-09-12T03:27:26;25.90;55.20
25732;DHT22;13585;50.864;4.406;2022-09-12T03:29:53;25.90;55.20
25732;DHT22;13585;50.864;4.406;2022-09-12T03:32:48;25.80;55.00
25732;DHT22;13585;50.864;4.406;2022-09-12T03:35:15;25.90;55.20
25732;DHT22;13585;50.864;4.406;2022-09-12T03:37:42;25.90;55.00
25732;DHT22;13585;50.864;4.406;2022-09-12T03:40:09;25.80;55.00
25732;DHT22;13585;50.864;4.406;2022-09-12T03:42:36;25.90;55.00
25732;DHT22;13585;50.864;4.406;2022-09-12T03:45:03;25.90;55.00
25732;DHT22;13585;50.864;4.406;2022-09-12T03:47:29;25.90;55.00
25732;DHT22;13585;50.864;4.406;2022-09-12T03:49:55;25.80;55.00
25732;DHT22;13585;50.864;4.406;2022-09-12T03:52:21;25.80;55.00
25732;DHT22;13585;50.864;4.406;2022-09-12T03:54:47;25.80;55.00
25732;DHT22;13585;50.864;4.406;2022-09-12T03:57:13;25.90;55.00
25732;DHT22;13585;50.864;4.406;2022-09-12T03:59:39;25.80;54.90
25732;DHT22;13585;50.864;4.406;2022-09-12T04:02:05;25.90;55.00
25732;DHT22;13585;50.864;4.406;2022-09-12T04:04:31;25.80;54.90
25732;DHT22;13585;50.864;4.406;2022-09-12T04:07:06;25.90;54.90
25732;DHT22;13585;50.864;4.406;2022-09-12T04:09:32;25.80;54.90
25732;DHT22;13585;50.864;4.406;2022-09-12T04:11:58;25.90;54.90
25732;DHT22;13585;50.864;4.406;2022-09-12T04:14:23;25.80;54.80
25732;DHT22;13585;50.864;4.406;2022-09-12T04:16:50;25.80;54.80
25732;DHT22;13585;50.864;4.406;2022-09-12T04:19:15;25.80;54.80
25732;DHT22;13585;50.864;4.406;2022-09-12T04:21:41;25.80;54.80
25732;DHT22;13585;50.864;4.406;2022-09-12T04:24:07;25.80;54.80
25732;DHT22;13585;50.864;4.406;2022-09-12T04:26:33;25.80;54.80
25732;DHT22;13585;50.864;4.406;2022-09-12T04:28:59;25.80;54.80
25732;DHT22;13585;50.864;4.406;2022-09-12T04:31:25;25.80;54.80
25732;DHT22;13585;50.864;4.406;2022-09-12T04:33:58;25.80;54.70
25732;DHT22;13585;50.864;4.406;2022-09-12T04:36:25;25.80;54.80
25732;DHT22;13585;50.864;4.406;2022-09-12T04:38:52;25.80;54.70
25732;DHT22;13585;50.864;4.406;2022-09-12T04:41:23;25.80;54.70
25732;DHT22;13585;50.864;4.406;2022-09-12T04:43:54;25.80;54.70
25732;DHT22;13585;50.864;4.406;2022-09-12T04:46:23;25.80;54.70
25732;DHT22;13585;50.864;4.406;2022-09-12T04:48:50;25.80;54.60
25732;DHT22;13585;50.864;4.406;2022-09-12T04:51:19;25.80;54.60
25732;DHT22;13585;50.864;4.406;2022-09-12T04:53:51;25.80;54.70
25732;DHT22;13585;50.864;4.406;2022-09-12T04:56:19;25.80;54.70
25732;DHT22;13585;50.864;4.406;2022-09-12T04:58:45;25.80;54.70
25732;DHT22;13585;50.864;4.406;2022-09-12T05:01:16;25.80;54.70
25732;DHT22;13585;50.864;4.406;2022-09-12T05:03:43;25.80;54.70
25732;DHT22;13585;50.864;4.406;2022-09-12T05:06:17;25.80;54.70
25732;DHT22;13585;50.864;4.406;2022-09-12T05:08:43;25.80;54.70
25732;DHT22;13585;50.864;4.406;2022-09-12T05:11:11;25.80;54.70
25732;DHT22;13585;50.864;4.406;2022-09-12T05:13:38;25.80;54.70
25732;DHT22;13585;50.864;4.406;2022-09-12T05:16:05;25.80;54.70
25732;DHT22;13585;50.864;4.406;2022-09-12T05:18:33;25.80;54.70
25732;DHT22;13585;50.864;4.406;2022-09-12T05:20:59;25.80;54.70
25732;DHT22;13585;50.864;4.406;2022-09-12T05:23:27;25.70;54.60
25732;DHT22;13585;50.864;4.406;2022-09-12T05:25:55;25.80;54.70
25732;DHT22;13585;50.864;4.406;2022-09-12T05:28:22;25.80;54.70
25732;DHT22;13585;50.864;4.406;2022-09-12T05:31:02;25.80;54.70
25732;DHT22;13585;50.864;4.406;2022-09-12T05:33:29;25.80;54.70
25732;DHT22;13585;50.864;4.406;2022-09-12T05:35:55;25.80;54.60
25732;DHT22;13585;50.864;4.406;2022-09-12T05:38:21;25.80;54.70
25732;DHT22;13585;50.864;4.406;2022-09-12T05:40:50;25.80;54.70
25732;DHT22;13585;50.864;4.406;2022-09-12T05:43:16;25.80;54.60
25732;DHT22;13585;50.864;4.406;2022-09-12T05:45:42;25.70;54.60
25732;DHT22;13585;50.864;4.406;2022-09-12T05:48:08;25.80;54.80
25732;DHT22;13585;50.864;4.406;2022-09-12T05:50:34;25.80;54.70
25732;DHT22;13585;50.864;4.406;2022-09-12T05:53:00;25.80;54.70
25732;DHT22;13585;50.864;4.406;2022-09-12T05:55:26;25.80;54.70
25732;DHT22;13585;50.864;4.406;2022-09-12T05:57:51;25.80;54.70
25732;DHT22;13585;50.864;4.406;2022-09-12T06:00:18;25.80;54.70
25732;DHT22;13585;50.864;4.406;2022-09-12T06:02:51;25.80;54.80
25732;DHT22;13585;50.864;4.406;2022-09-12T06:05:18;25.70;54.70
25732;DHT22;13585;50.864;4.406;2022-09-12T06:07:46;25.80;54.80
25732;DHT22;13585;50.864;4.406;2022-09-12T06:10:12;25.70;54.70
25732;DHT22;13585;50.864;4.406;2022-09-12T06:12:38;25.80;54.80
25732;DHT22;13585;50.864;4.406;2022-09-12T06:15:04;25.70;54.70
25732;DHT22;13585;50.864;4.406;2022-09-12T06:17:30;25.70;54.70
25732;DHT22;13585;50.864;4.406;2022-09-12T06:19:56;25.70;54.70
25732;DHT22;13585;50.864;4.406;2022-09-12T06:22:22;25.70;54.80
25732;DHT22;13585;50.864;4.406;2022-09-12T06:24:48;25.70;54.70
25732;DHT22;13585;50.864;4.406;2022-09-12T06:27:14;25.70;54.70
25732;DHT22;13585;50.864;4.406;2022-09-12T06:29:40;25.70;54.60
25732;DHT22;13585;50.864;4.406;2022-09-12T06:32:06;25.70;54.60
25732;DHT22;13585;50.864;4.406;2022-09-12T06:34:32;25.70;54.70
25732;DHT22;13585;50.864;4.406;2022-09-12T06:36:58;25.70;54.60
25732;DHT22;13585;50.864;4.406;2022-09-12T06:39:24;25.70;54.60
25732;DHT22;13585;50.864;4.406;2022-09-12T06:42:28;25.70;54.60
25732;DHT22;13585;50.864;4.406;2022-09-12T06:44:55;25.70;54.70
25732;DHT22;13585;50.864;4.406;2022-09-12T06:47:21;25.70;54.50
25732;DHT22;13585;50.864;4.406;2022-09-12T06:49:47;25.70;54.50
25732;DHT22;13585;50.864;4.406;2022-09-12T06:52:13;25.70;54.50
25732;DHT22;13585;50.864;4.406;2022-09-12T06:54:39;25.70;54.50
25732;DHT22;13585;50.864;4.406;2022-09-12T06:57:05;25.70;54.50
25732;DHT22;13585;50.864;4.406;2022-09-12T06:59:31;25.70;54.40
25732;DHT22;13585;50.864;4.406;2022-09-12T07:01:57;25.80;54.50
25732;DHT22;13585;50.864;4.406;2022-09-12T07:04:26;25.80;54.40
25732;DHT22;13585;50.864;4.406;2022-09-12T07:06:52;25.80;54.40
25732;DHT22;13585;50.864;4.406;2022-09-12T07:09:18;25.80;54.40
25732;DHT22;13585;50.864;4.406;2022-09-12T07:11:45;25.80;54.30
25732;DHT22;13585;50.864;4.406;2022-09-12T07:14:12;25.80;54.30
25732;DHT22;13585;50.864;4.406;2022-09-12T07:16:38;25.80;54.30
25732;DHT22;13585;50.864;4.406;2022-09-12T07:19:06;25.80;54.30
25732;DHT22;13585;50.864;4.406;2022-09-12T07:21:32;25.80;54.20
25732;DHT22;13585;50.864;4.406;2022-09-12T07:24:01;25.80;54.20
25732;DHT22;13585;50.864;4.406;2022-09-12T07:26:28;25.80;54.20
25732;DHT22;13585;50.864;4.406;2022-09-12T07:28:56;25.80;54.20
25732;DHT22;13585;50.864;4.406;2022-09-12T07:31:23;25.80;54.20
25732;DHT22;13585;50.864;4.406;2022-09-12T07:33:50;25.80;54.10
25732;DHT22;13585;50.864;4.406;2022-09-12T07:36:18;25.80;54.20
25732;DHT22;13585;50.864;4.406;2022-09-12T07:38:44;25.80;54.20
25732;DHT22;13585;50.864;4.406;2022-09-12T07:41:17;25.80;54.20
25732;DHT22;13585;50.864;4.406;2022-09-12T07:43:43;25.80;54.20
25732;DHT22;13585;50.864;4.406;2022-09-12T07:46:10;25.80;54.10
25732;DHT22;13585;50.864;4.406;2022-09-12T07:48:37;25.80;54.10
25732;DHT22;13585;50.864;4.406;2022-09-12T07:51:08;25.80;54.10
25732;DHT22;13585;50.864;4.406;2022-09-12T07:53:36;25.80;54.10
25732;DHT22;13585;50.864;4.406;2022-09-12T07:56:03;25.80;54.00
25732;DHT22;13585;50.864;4.406;2022-09-12T07:58:31;25.90;54.00
25732;DHT22;13585;50.864;4.406;2022-09-12T08:01:04;25.90;54.00
25732;DHT22;13585;50.864;4.406;2022-09-12T08:03:30;25.90;54.10
25732;DHT22;13585;50.864;4.406;2022-09-12T08:08:29;25.80;54.00
25732;DHT22;13585;50.864;4.406;2022-09-12T08:10:58;25.90;54.00
25732;DHT22;13585;50.864;4.406;2022-09-12T08:13:26;25.90;54.00
25732;DHT22;13585;50.864;4.406;2022-09-12T08:15:56;25.90;54.00
25732;DHT22;13585;50.864;4.406;2022-09-12T08:18:25;25.90;54.00
25732;DHT22;13585;50.864;4.406;2022-09-12T08:20:58;25.90;54.00
25732;DHT22;13585;50.864;4.406;2022-09-12T08:23:25;25.90;54.00
25732;DHT22;13585;50.864;4.406;2022-09-12T08:25:58;25.90;54.00
25732;DHT22;13585;50.864;4.406;2022-09-12T08:28:25;25.90;54.00
25732;DHT22;13585;50.864;4.406;2022-09-12T08:30:52;25.90;54.00
25732;DHT22;13585;50.864;4.406;2022-09-12T08:33:19;25.90;54.00
25732;DHT22;13585;50.864;4.406;2022-09-12T08:35:45;25.90;54.00
25732;DHT22;13585;50.864;4.406;2022-09-12T08:38:12;25.90;54.10
25732;DHT22;13585;50.864;4.406;2022-09-12T08:40:54;25.90;54.10
25732;DHT22;13585;50.864;4.406;2022-09-12T08:49:23;25.90;54.00
25732;DHT22;13585;50.864;4.406;2022-09-12T08:51:50;25.90;54.10
25732;DHT22;13585;50.864;4.406;2022-09-12T08:54:25;25.90;54.10
25732;DHT22;13585;50.864;4.406;2022-09-12T08:56:57;25.90;54.20
25732;DHT22;13585;50.864;4.406;2022-09-12T08:59:23;25.90;54.20
25732;DHT22;13585;50.864;4.406;2022-09-12T09:01:52;25.90;54.20
25732;DHT22;13585;50.864;4.406;2022-09-12T09:18:42;25.90;54.30
25732;DHT22;13585;50.864;4.406;2022-09-12T09:21:20;25.90;54.30
25732;DHT22;13585;50.864;4.406;2022-09-12T09:24:10;25.90;54.40
25732;DHT22;13585;50.864;4.406;2022-09-12T09:29:46;25.90;54.40
25732;DHT22;13585;50.864;4.406;2022-09-12T09:32:21;26.00;55.00
25732;DHT22;13585;50.864;4.406;2022-09-12T09:34:50;26.00;54.50
25732;DHT22;13585;50.864;4.406;2022-09-12T09:43:22;25.90;54.60
25732;DHT22;13585;50.864;4.406;2022-09-12T09:45:49;25.90;54.60
25732;DHT22;13585;50.864;4.406;2022-09-12T09:48:19;26.00;54.60
25732;DHT22;13585;50.864;4.406;2022-09-12T09:50:48;26.00;54.60
25732;DHT22;13585;50.864;4.406;2022-09-12T09:53:34;26.00;54.70
25732;DHT22;13585;50.864;4.406;2022-09-12T09:56:06;26.00;54.90
25732;DHT22;13585;50.864;4.406;2022-09-12T09:58:34;26.00;54.80
25732;DHT22;13585;50.864;4.406;2022-09-12T10:01:04;26.00;54.60
25732;DHT22;13585;50.864;4.406;2022-09-12T10:03:37;26.10;54.70
25732;DHT22;13585;50.864;4.406;2022-09-12T10:06:21;26.10;54.90
25732;DHT22;13585;50.864;4.406;2022-09-12T10:08:48;26.00;55.00
25732;DHT22;13585;50.864;4.406;2022-09-12T10:13:41;26.00;55.10
25732;DHT22;13585;50.864;4.406;2022-09-12T10:16:31;26.00;55.20
25732;DHT22;13585;50.864;4.406;2022-09-12T10:19:02;26.10;55.30
25732;DHT22;13585;50.864;4.406;2022-09-12T10:21:40;26.00;55.30
25732;DHT22;13585;50.864;4.406;2022-09-12T10:24:25;26.00;55.40
25732;DHT22;13585;50.864;4.406;2022-09-12T10:26:57;26.00;55.40
25732;DHT22;13585;50.864;4.406;2022-09-12T10:29:32;26.00;55.50
25732;DHT22;13585;50.864;4.406;2022-09-12T10:32:05;26.10;55.60
25732;DHT22;13585;50.864;4.406;2022-09-12T10:34:42;26.10;55.70
25732;DHT22;13585;50.864;4.406;2022-09-12T10:37:31;26.00;55.70
25732;DHT22;13585;50.864;4.406;2022-09-12T10:39:58;26.10;55.70
25732;DHT22;13585;50.864;4.406;2022-09-12T10:42:49;26.10;55.70
25732;DHT22;13585;50.864;4.406;2022-09-12T10:45:26;26.00;55.80
25732;DHT22;13585;50.864;4.406;2022-09-12T10:47:55;26.10;55.80
25732;DHT22;13585;50.864;4.406;2022-09-12T10:50:41;26.10;55.80
25732;DHT22;13585;50.864;4.406;2022-09-12T10:53:25;26.10;55.90
25732;DHT22;13585;50.864;4.406;2022-09-12T10:56:31;26.10;55.90
25732;DHT22;13585;50.864;4.406;2022-09-12T11:13:20;26.10;56.10
25732;DHT22;13585;50.864;4.406;2022-09-12T11:16:10;26.20;56.20
25732;DHT22;13585;50.864;4.406;2022-09-12T11:21:55;26.20;56.30
25732;DHT22;13585;50.864;4.406;2022-09-12T11:29:58;26.20;56.40
25732;DHT22;13585;50.864;4.406;2022-09-12T11:51:38;26.20;56.60
25732;DHT22;13585;50.864;4.406;2022-09-12T11:54:22;26.30;56.70
25732;DHT22;13585;50.864;4.406;2022-09-12T12:00:43;26.30;56.70
25732;DHT22;13585;50.864;4.406;2022-09-12T12:03:40;26.30;56.60
25732;DHT22;13585;50.864;4.406;2022-09-12T12:08:40;26.30;56.70
25732;DHT22;13585;50.864;4.406;2022-09-12T12:11:11;26.30;56.60
25732;DHT22;13585;50.864;4.406;2022-09-12T12:16:32;26.30;56.60
25732;DHT22;13585;50.864;4.406;2022-09-12T12:19:00;26.30;56.60
25732;DHT22;13585;50.864;4.406;2022-09-12T12:27:00;26.30;56.80
25732;DHT22;13585;50.864;4.406;2022-09-12T12:35:41;26.40;56.60
25732;DHT22;13585;50.864;4.406;2022-09-12T12:41:47;26.30;56.80
25732;DHT22;13585;50.864;4.406;2022-09-12T12:50:37;26.40;56.80
25732;DHT22;13585;50.864;4.406;2022-09-12T12:53:24;26.40;56.70
25732;DHT22;13585;50.864;4.406;2022-09-12T12:55:57;26.30;56.80
25732;DHT22;13585;50.864;4.406;2022-09-12T12:58:34;26.40;56.70
25732;DHT22;13585;50.864;4.406;2022-09-12T13:01:19;26.30;56.60
25732;DHT22;13585;50.864;4.406;2022-09-12T13:06:44;26.40;56.40
25732;DHT22;13585;50.864;4.406;2022-09-12T13:09:26;26.30;56.30
25732;DHT22;13585;50.864;4.406;2022-09-12T13:11:58;26.40;56.20
25732;DHT22;13585;50.864;4.406;2022-09-12T13:14:51;26.40;56.10
25732;DHT22;13585;50.864;4.406;2022-09-12T13:17:38;26.50;56.10
25732;DHT22;13585;50.864;4.406;2022-09-12T13:23:36;26.40;55.80
25732;DHT22;13585;50.864;4.406;2022-09-12T13:26:03;26.40;55.80
25732;DHT22;13585;50.864;4.406;2022-09-12T13:28:34;26.40;55.50
25732;DHT22;13585;50.864;4.406;2022-09-12T13:45:19;26.40;55.20
25732;DHT22;13585;50.864;4.406;2022-09-12T13:48:03;26.40;55.00
25732;DHT22;13585;50.864;4.406;2022-09-12T13:50:55;26.40;54.90
25732;DHT22;13585;50.864;4.406;2022-09-12T13:53:43;26.30;54.80
25732;DHT22;13585;50.864;4.406;2022-09-12T13:56:17;26.40;54.90
25732;DHT22;13585;50.864;4.406;2022-09-12T13:58:57;26.40;54.60
25732;DHT22;13585;50.864;4.406;2022-09-12T14:01:45;26.30;54.50
25732;DHT22;13585;50.864;4.406;2022-09-12T14:04:17;26.40;54.30
25732;DHT22;13585;50.864;4.406;2022-09-12T14:09:42;26.40;54.00
25732;DHT22;13585;50.864;4.406;2022-09-12T14:12:37;26.40;53.80
25732;DHT22;13585;50.864;4.406;2022-09-12T14:15:19;26.40;53.80
25732;DHT22;13585;50.864;4.406;2022-09-12T14:17:50;26.40;53.50
25732;DHT22;13585;50.864;4.406;2022-09-12T14:20:18;26.40;53.20
25732;DHT22;13585;50.864;4.406;2022-09-12T14:22:45;26.40;53.20
25732;DHT22;13585;50.864;4.406;2022-09-12T14:25:17;26.40;53.00
25732;DHT22;13585;50.864;4.406;2022-09-12T14:27:46;26.30;52.90
25732;DHT22;13585;50.864;4.406;2022-09-12T14:30:41;26.40;52.90
25732;DHT22;13585;50.864;4.406;2022-09-12T14:33:21;26.40;52.90
25732;DHT22;13585;50.864;4.406;2022-09-12T14:35:49;26.40;52.60
25732;DHT22;13585;50.864;4.406;2022-09-12T14:38:28;26.40;52.50
25732;DHT22;13585;50.864;4.406;2022-09-12T14:41:00;26.40;52.50
25732;DHT22;13585;50.864;4.406;2022-09-12T14:43:49;26.40;52.30
25732;DHT22;13585;50.864;4.406;2022-09-12T14:46:35;26.40;52.40
25732;DHT22;13585;50.864;4.406;2022-09-12T14:49:16;26.40;52.00
25732;DHT22;13585;50.864;4.406;2022-09-12T14:55:00;26.40;52.00
25732;DHT22;13585;50.864;4.406;2022-09-12T14:57:54;26.40;51.80
25732;DHT22;13585;50.864;4.406;2022-09-12T15:03:48;26.40;51.70
25732;DHT22;13585;50.864;4.406;2022-09-12T15:08:47;26.40;51.60
25732;DHT22;13585;50.864;4.406;2022-09-12T15:11:13;26.40;51.50
25732;DHT22;13585;50.864;4.406;2022-09-12T15:13:40;26.40;51.50
25732;DHT22;13585;50.864;4.406;2022-09-12T15:16:09;26.40;51.40
25732;DHT22;13585;50.864;4.406;2022-09-12T15:18:35;26.40;51.20
25732;DHT22;13585;50.864;4.406;2022-09-12T15:21:04;26.40;51.20
25732;DHT22;13585;50.864;4.406;2022-09-12T15:26:01;26.40;51.10
25732;DHT22;13585;50.864;4.406;2022-09-12T15:28:29;26.40;51.10
25732;DHT22;13585;50.864;4.406;2022-09-12T15:30:56;26.40;51.00
25732;DHT22;13585;50.864;4.406;2022-09-12T15:33:24;26.40;51.00
25732;DHT22;13585;50.864;4.406;2022-09-12T15:35:52;26.40;51.00
25732;DHT22;13585;50.864;4.406;2022-09-12T15:38:25;26.40;51.00
25732;DHT22;13585;50.864;4.406;2022-09-12T15:41:08;26.40;51.10
25732;DHT22;13585;50.864;4.406;2022-09-12T15:49:48;26.30;51.00
25732;DHT22;13585;50.864;4.406;2022-09-12T15:52:40;26.40;50.70
25732;DHT22;13585;50.864;4.406;2022-09-12T15:55:34;26.40;50.80
25732;DHT22;13585;50.864;4.406;2022-09-12T15:58:04;26.40;50.70
25732;DHT22;13585;50.864;4.406;2022-09-12T16:00:30;26.40;50.70
25732;DHT22;13585;50.864;4.406;2022-09-12T16:02:56;26.40;50.60
25732;DHT22;13585;50.864;4.406;2022-09-12T16:05:24;26.40;50.60
25732;DHT22;13585;50.864;4.406;2022-09-12T16:07:52;26.40;50.50
25732;DHT22;13585;50.864;4.406;2022-09-12T16:10:25;26.40;50.50
25732;DHT22;13585;50.864;4.406;2022-09-12T16:12:51;26.30;50.50
25732;DHT22;13585;50.864;4.406;2022-09-12T16:15:20;26.40;50.50
25732;DHT22;13585;50.864;4.406;2022-09-12T16:17:46;26.40;50.50
25732;DHT22;13585;50.864;4.406;2022-09-12T16:20:12;26.30;50.30
25732;DHT22;13585;50.864;4.406;2022-09-12T16:22:38;26.40;50.30
25732;DHT22;13585;50.864;4.406;2022-09-12T16:25:05;26.40;50.30
25732;DHT22;13585;50.864;4.406;2022-09-12T16:27:31;26.40;50.10
25732;DHT22;13585;50.864;4.406;2022-09-12T16:29:57;26.40;50.10
25732;DHT22;13585;50.864;4.406;2022-09-12T16:32:23;26.40;50.10
25732;DHT22;13585;50.864;4.406;2022-09-12T16:34:49;26.30;50.00
25732;DHT22;13585;50.864;4.406;2022-09-12T16:37:16;26.40;50.10
25732;DHT22;13585;50.864;4.406;2022-09-12T16:39:42;26.30;50.10
25732;DHT22;13585;50.864;4.406;2022-09-12T16:42:08;26.40;50.20
25732;DHT22;13585;50.864;4.406;2022-09-12T16:44:34;26.40;50.30
25732;DHT22;13585;50.864;4.406;2022-09-12T16:46:59;26.40;50.40
25732;DHT22;13585;50.864;4.406;2022-09-12T16:49:25;26.30;50.40
25732;DHT22;13585;50.864;4.406;2022-09-12T16:51:51;26.30;50.50
25732;DHT22;13585;50.864;4.406;2022-09-12T16:54:17;26.40;50.70
25732;DHT22;13585;50.864;4.406;2022-09-12T16:56:43;26.30;50.80
25732;DHT22;13585;50.864;4.406;2022-09-12T16:59:11;26.40;51.10
25732;DHT22;13585;50.864;4.406;2022-09-12T17:01:40;26.40;51.30
25732;DHT22;13585;50.864;4.406;2022-09-12T17:04:12;26.40;51.50
25732;DHT22;13585;50.864;4.406;2022-09-12T17:06:38;26.40;51.60
25732;DHT22;13585;50.864;4.406;2022-09-12T17:09:04;26.40;51.60
25732;DHT22;13585;50.864;4.406;2022-09-12T17:11:35;26.40;51.60
25732;DHT22;13585;50.864;4.406;2022-09-12T17:14:02;26.40;51.70
25732;DHT22;13585;50.864;4.406;2022-09-12T17:16:40;26.40;51.70
25732;DHT22;13585;50.864;4.406;2022-09-12T17:19:22;26.30;51.80
25732;DHT22;13585;50.864;4.406;2022-09-12T17:22:26;26.30;51.90
25732;DHT22;13585;50.864;4.406;2022-09-12T17:24:52;26.40;51.90
25732;DHT22;13585;50.864;4.406;2022-09-12T17:27:18;26.40;52.10
25732;DHT22;13585;50.864;4.406;2022-09-12T17:29:47;26.40;52.10
25732;DHT22;13585;50.864;4.406;2022-09-12T17:32:13;26.40;52.20
25732;DHT22;13585;50.864;4.406;2022-09-12T17:34:49;26.30;52.20
25732;DHT22;13585;50.864;4.406;2022-09-12T17:51:27;26.30;52.60
25732;DHT22;13585;50.864;4.406;2022-09-12T17:54:04;26.30;52.80
25732;DHT22;13585;50.864;4.406;2022-09-12T17:56:39;26.30;52.80
25732;DHT22;13585;50.864;4.406;2022-09-12T17:59:18;26.30;52.90
25732;DHT22;13585;50.864;4.406;2022-09-12T18:01:50;26.30;52.90
25732;DHT22;13585;50.864;4.406;2022-09-12T18:04:58;26.20;53.00
25732;DHT22;13585;50.864;4.406;2022-09-12T18:07:24;26.30;53.20
25732;DHT22;13585;50.864;4.406;2022-09-12T18:09:53;26.20;53.20
25732;DHT22;13585;50.864;4.406;2022-09-12T18:12:54;26.20;53.30
25732;DHT22;13585;50.864;4.406;2022-09-12T18:15:20;26.20;53.30
25732;DHT22;13585;50.864;4.406;2022-09-12T18:17:47;26.20;53.40
25732;DHT22;13585;50.864;4.406;2022-09-12T18:20:16;26.20;53.70
25732;DHT22;13585;50.864;4.406;2022-09-12T18:22:41;26.20;53.50
25732;DHT22;13585;50.864;4.406;2022-09-12T18:25:07;26.20;53.50
25732;DHT22;13585;50.864;4.406;2022-09-12T18:27:33;26.20;53.50
25732;DHT22;13585;50.864;4.406;2022-09-12T18:29:59;26.10;53.60
25732;DHT22;13585;50.864;4.406;2022-09-12T18:32:25;26.10;53.60
25732;DHT22;13585;50.864;4.406;2022-09-12T18:34:50;26.10;53.70
25732;DHT22;13585;50.864;4.406;2022-09-12T18:37:16;26.10;53.80
25732;DHT22;13585;50.864;4.406;2022-09-12T18:39:42;26.10;53.80
25732;DHT22;13585;50.864;4.406;2022-09-12T18:42:08;26.10;53.80
25732;DHT22;13585;50.864;4.406;2022-09-12T18:44:34;26.10;53.80
25732;DHT22;13585;50.864;4.406;2022-09-12T18:47:00;26.10;53.80
25732;DHT22;13585;50.864;4.406;2022-09-12T18:49:27;26.10;53.90
25732;DHT22;13585;50.864;4.406;2022-09-12T18:52:02;26.10;53.90
25732;DHT22;13585;50.864;4.406;2022-09-12T18:54:31;26.10;53.90
25732;DHT22;13585;50.864;4.406;2022-09-12T18:57:15;26.10;54.00
25732;DHT22;13585;50.864;4.406;2022-09-12T19:00:22;26.10;53.80
25732;DHT22;13585;50.864;4.406;2022-09-12T19:03:31;26.10;53.70
25732;DHT22;13585;50.864;4.406;2022-09-12T19:05:56;26.00;53.80
25732;DHT22;13585;50.864;4.406;2022-09-12T19:18:13;25.90;54.00
25732;DHT22;13585;50.864;4.406;2022-09-12T19:20:43;25.90;54.10
25732;DHT22;13585;50.864;4.406;2022-09-12T19:23:10;25.80;54.20
25732;DHT22;13585;50.864;4.406;2022-09-12T19:25:36;25.80;54.10
25732;DHT22;13585;50.864;4.406;2022-09-12T19:28:02;25.80;54.00
25732;DHT22;13585;50.864;4.406;2022-09-12T19:30:46;25.80;54.00
25732;DHT22;13585;50.864;4.406;2022-09-12T19:33:12;25.70;53.90
25732;DHT22;13585;50.864;4.406;2022-09-12T19:35:47;25.80;53.90